Ana Sayfa
METAR-TAF:

METAR-TAF

Havaalanları :

Fort Bliss, Teksas, Amerika Birleşik Devletleri

Enlem: 31-50-58N, Boylam: 106-22-48W, yükseklik: 1203 m

Güncel hava durumu gözlemi

Rapor saat 21:58 UTC de 23 dakika önce yapıldı.
Sakin rüzgar
Sıcaklık 15°C
Nem 31%
Basınç 1019 hPa
Görüş mesafesi: 16.1 km
Açık gökyüzü

METAR: KBIF 232158Z AUTO 00000KT 10SM CLR 15/M02 A3008 RMK AO2 SLP160 T01471023 $

Saat: 15:21 (22:21 UTC)

Tahmin

Rapor saat 22:01 UTC de 20 dakika önce yapıldı.
Ayın 23'si saat 22 UTC'den ayın 25'si saat 04 UTC'ye kadar geçerli Tahmin
Rüzgar değişken yönden 6 kt
Görüş mesafesi 10 km veya daha fazla
Açık gökyüzü

TAF: KBIF 232201Z 2322/2504 VRB06KT 9999 SKC QNH3000INS TX15/2421Z TNM02/2413Z

4.000'den fazla havaalanı için hava durumu gözlemleri ve tahminleri (METAR ve TAF raporları).

Kullanılabilir istasyonlar harita üzerinde sarı ve kırmızı noktalarla gösterilir.

İstasyonun adını görmek için fareyi noktanın üzerinde gezdirin.

Sonrasında hava gözlem ve tahminlerini görmek için tıklayın.

Haritayı değiştirmek için: yaklaştırmak için siyah artı işaretli yeşil düğmeye ve uzaklaştırmak için de eksi işaretli düğmeye hızla tıklayın; bitişik haritalar için yeşil okları kullanın.


METAR-TAF: